createdAt,value
2023-05-08T00:01:57.493Z,40.34
2023-05-08T00:04:30.989Z,40.23
2023-05-08T00:07:04.403Z,40.26
2023-05-08T00:09:39.050Z,40.45
2023-05-08T00:12:12.273Z,40.56
2023-05-08T00:14:45.683Z,40.52
2023-05-08T00:17:19.268Z,40.66
2023-05-08T00:19:53.303Z,40.72
2023-05-08T00:22:26.855Z,40.76
2023-05-08T00:25:00.205Z,40.60
2023-05-08T00:27:34.757Z,40.56
2023-05-08T00:30:10.816Z,40.48
2023-05-08T00:32:47.257Z,40.41
2023-05-08T00:35:21.073Z,40.51
2023-05-08T00:37:54.672Z,40.51
2023-05-08T00:40:28.632Z,40.66
2023-05-08T00:43:01.970Z,40.85
2023-05-08T00:45:39.043Z,40.92
2023-05-08T00:48:12.284Z,41.18
2023-05-08T00:50:47.141Z,41.07
2023-05-08T00:53:22.155Z,41.42
2023-05-08T00:55:56.016Z,41.54
2023-05-08T00:58:31.550Z,41.50
2023-05-08T01:01:07.118Z,41.53
2023-05-08T01:03:41.423Z,41.36
2023-05-08T01:06:14.753Z,41.26
2023-05-08T01:08:50.125Z,41.08
2023-05-08T01:11:27.538Z,41.04
2023-05-08T01:14:06.060Z,41.06
2023-05-08T01:16:43.691Z,40.82
2023-05-08T01:19:27.378Z,40.90
2023-05-08T01:22:04.262Z,40.76
2023-05-08T01:24:52.622Z,40.81
2023-05-08T01:28:05.830Z,40.70
2023-05-08T01:30:50.923Z,40.86
2023-05-08T01:33:29.516Z,40.65
2023-05-08T01:36:07.554Z,40.88
2023-05-08T01:38:44.069Z,41.06
2023-05-08T01:41:21.378Z,41.12
2023-05-08T01:43:57.823Z,41.36
2023-05-08T01:46:32.680Z,41.21
2023-05-08T01:49:10.349Z,41.34
2023-05-08T01:51:47.359Z,41.40
2023-05-08T01:57:05.945Z,40.92
2023-05-08T01:59:40.377Z,41.48
2023-05-08T02:02:17.227Z,41.61
2023-05-08T02:04:50.878Z,41.81
2023-05-08T02:07:25.935Z,42.01
2023-05-08T02:10:00.762Z,42.08
2023-05-08T02:12:35.782Z,42.16
2023-05-08T02:15:13.031Z,42.12
2023-05-08T02:17:48.300Z,42.06
2023-05-08T02:20:22.992Z,41.86
2023-05-08T02:22:55.908Z,41.98
2023-05-08T02:25:31.711Z,42.09
2023-05-08T02:28:06.982Z,42.15
2023-05-08T02:30:41.065Z,42.17
2023-05-08T02:33:16.269Z,42.13
2023-05-08T02:35:51.689Z,42.15
2023-05-08T02:38:27.014Z,42.21
2023-05-08T02:41:03.585Z,42.44
2023-05-08T02:43:37.047Z,42.50
2023-05-08T02:46:14.962Z,42.48
2023-05-08T02:48:51.639Z,42.51
2023-05-08T02:51:28.243Z,42.34
2023-05-08T02:54:06.561Z,42.40
2023-05-08T02:56:42.726Z,42.35
2023-05-08T02:59:21.699Z,42.32
2023-05-08T03:01:58.645Z,42.46
2023-05-08T03:07:15.773Z,42.51
2023-05-08T03:09:51.961Z,42.99
2023-05-08T03:12:28.157Z,43.08
2023-05-08T03:15:05.935Z,43.24
2023-05-08T03:17:43.800Z,43.47
2023-05-08T03:20:19.340Z,43.42
2023-05-08T03:22:54.802Z,43.35
2023-05-08T03:25:29.999Z,43.42
2023-05-08T03:28:05.371Z,43.51
2023-05-08T03:30:41.295Z,43.53
2023-05-08T03:33:18.788Z,43.43
2023-05-08T03:35:53.784Z,43.44
2023-05-08T03:38:27.187Z,43.64
2023-05-08T03:41:02.205Z,43.79
2023-05-08T03:43:37.115Z,43.77
2023-05-08T03:46:11.225Z,43.69
2023-05-08T03:48:45.806Z,43.63
2023-05-08T03:51:19.160Z,43.75
2023-05-08T03:53:52.259Z,43.73
2023-05-08T03:56:26.208Z,43.69
2023-05-08T03:59:04.126Z,43.65
2023-05-08T04:01:41.399Z,43.64
2023-05-08T04:04:19.354Z,43.47
2023-05-08T04:06:57.125Z,43.69
2023-05-08T04:09:35.162Z,43.61
2023-05-08T04:12:12.219Z,43.66
2023-05-08T04:14:49.417Z,43.63
2023-05-08T04:17:27.107Z,43.52
2023-05-08T04:20:04.893Z,43.41
2023-05-08T04:22:40.248Z,43.20
2023-05-08T04:25:16.623Z,43.10
2023-05-08T04:27:51.932Z,43.28
2023-05-08T04:30:26.064Z,43.02
2023-05-08T04:33:00.522Z,42.91
2023-05-08T04:35:34.733Z,42.80
2023-05-08T04:38:08.393Z,42.84
2023-05-08T04:40:41.407Z,42.78
2023-05-08T04:43:15.824Z,42.49
2023-05-08T04:45:48.885Z,42.40
2023-05-08T04:48:21.880Z,42.35
2023-05-08T04:50:54.996Z,42.18
2023-05-08T04:53:28.431Z,41.92
2023-05-08T04:56:01.752Z,42.21
2023-05-08T04:58:34.856Z,41.90
2023-05-08T05:01:08.354Z,42.02
2023-05-08T05:03:41.333Z,41.70
2023-05-08T05:06:14.678Z,41.93
2023-05-08T05:08:51.076Z,41.64
2023-05-08T05:11:24.237Z,41.31
2023-05-08T05:13:57.894Z,40.99
2023-05-08T05:16:30.964Z,41.02
2023-05-08T05:19:04.896Z,40.94
2023-05-08T05:21:38.897Z,40.75
2023-05-08T05:24:12.202Z,40.69
2023-05-08T05:26:45.995Z,40.67
2023-05-08T05:29:19.236Z,40.46
2023-05-08T05:31:52.419Z,40.26
2023-05-08T05:34:25.666Z,40.16
2023-05-08T05:36:58.843Z,40.23
2023-05-08T05:39:41.650Z,40.04
2023-05-08T05:42:18.138Z,40.04
2023-05-08T05:44:51.128Z,40.21
2023-05-08T05:47:24.115Z,39.87
2023-05-08T05:49:57.204Z,39.62
2023-05-08T05:52:34.609Z,39.62
2023-05-08T05:55:09.416Z,39.44
2023-05-08T05:57:42.637Z,39.21
2023-05-08T06:00:17.538Z,38.84
2023-05-08T06:02:55.635Z,38.72
2023-05-08T06:05:28.791Z,38.49
2023-05-08T06:08:03.368Z,38.47
2023-05-08T06:10:36.665Z,38.09
2023-05-08T06:13:10.120Z,38.17
2023-05-08T06:15:43.276Z,38.09
2023-05-08T06:18:16.719Z,37.80
2023-05-08T06:20:49.707Z,37.62
2023-05-08T06:23:22.763Z,37.21
2023-05-08T06:25:55.926Z,37.15
2023-05-08T06:28:28.942Z,37.10
2023-05-08T06:31:03.751Z,36.68
2023-05-08T06:33:38.813Z,36.39
2023-05-08T06:36:13.287Z,36.09
2023-05-08T06:38:46.278Z,35.88
2023-05-08T06:41:21.995Z,35.73
2023-05-08T06:44:01.317Z,35.48
2023-05-08T06:46:34.482Z,34.68
2023-05-08T06:49:07.463Z,33.64
2023-05-08T06:51:40.430Z,33.09
2023-05-08T06:54:13.453Z,30.96
2023-05-08T06:56:46.483Z,28.39
2023-05-08T06:59:19.929Z,26.04
2023-05-08T07:01:53.097Z,24.12
2023-05-08T07:04:26.859Z,25.36
2023-05-08T07:07:00.562Z,24.44
2023-05-08T07:09:34.868Z,22.59
2023-05-08T07:12:09.607Z,19.87
2023-05-08T07:14:42.716Z,19.96
2023-05-08T07:17:16.281Z,19.39
2023-05-08T07:19:52.740Z,19.05
2023-05-08T07:22:25.892Z,19.06
2023-05-08T07:24:58.983Z,19.52
2023-05-08T07:27:33.160Z,20.35
2023-05-08T07:30:07.473Z,19.89
2023-05-08T07:32:40.559Z,18.73
2023-05-08T07:35:13.876Z,17.84
2023-05-08T07:37:50.176Z,17.16
2023-05-08T07:40:23.630Z,18.41
2023-05-08T07:42:57.064Z,19.43
2023-05-08T07:45:30.514Z,19.41
2023-05-08T07:48:10.129Z,17.67
2023-05-08T07:50:45.677Z,16.93
2023-05-08T07:53:28.508Z,15.47
2023-05-08T07:56:01.593Z,13.77
2023-05-08T07:58:36.600Z,13.16
2023-05-08T08:01:13.232Z,14.89
2023-05-08T08:03:46.865Z,15.10
2023-05-08T08:06:20.475Z,17.12
2023-05-08T08:08:53.765Z,18.68
2023-05-08T08:11:27.662Z,19.25
2023-05-08T08:14:03.795Z,20.27
2023-05-08T08:16:39.505Z,20.91
2023-05-08T08:19:12.913Z,21.69
2023-05-08T08:21:47.244Z,21.93
2023-05-08T08:24:20.725Z,22.07
2023-05-08T08:26:54.030Z,22.39
2023-05-08T08:29:27.269Z,22.62
2023-05-08T08:32:00.739Z,22.91
2023-05-08T08:34:35.632Z,23.55
2023-05-08T08:37:08.964Z,24.23
2023-05-08T08:39:42.153Z,24.81
2023-05-08T08:42:16.861Z,25.58
2023-05-08T08:44:50.227Z,26.26
2023-05-08T08:47:26.671Z,26.70
2023-05-08T08:50:03.233Z,26.88
2023-05-08T08:52:43.152Z,26.94
2023-05-08T08:55:19.501Z,26.97
2023-05-08T09:00:39.888Z,26.71
2023-05-08T09:03:13.835Z,26.08
2023-05-08T09:05:49.028Z,26.15
2023-05-08T09:08:22.467Z,26.11
2023-05-08T09:10:57.247Z,26.31
2023-05-08T09:13:31.628Z,26.61
2023-05-08T09:16:05.476Z,26.24
2023-05-08T09:18:39.052Z,26.11
2023-05-08T09:21:12.614Z,25.97
2023-05-08T09:24:02.625Z,26.17
2023-05-08T09:26:37.687Z,25.75
2023-05-08T09:29:19.020Z,25.86
2023-05-08T09:31:53.367Z,25.29
2023-05-08T09:34:28.740Z,24.98
2023-05-08T09:37:21.184Z,24.84
2023-05-08T09:40:03.951Z,24.82
2023-05-08T09:42:41.529Z,24.04
2023-05-08T09:45:17.889Z,23.48
2023-05-08T09:47:53.084Z,23.35
2023-05-08T09:50:29.276Z,23.00
2023-05-08T09:53:02.687Z,22.66
2023-05-08T09:55:50.899Z,22.66
2023-05-08T09:58:25.169Z,22.46
2023-05-08T10:01:02.555Z,22.37
2023-05-08T10:03:51.623Z,22.36
2023-05-08T10:06:25.259Z,22.45
2023-05-08T10:09:15.272Z,22.87
2023-05-08T10:11:54.714Z,22.96
2023-05-08T10:14:28.108Z,22.97
2023-05-08T10:17:04.067Z,23.40
2023-05-08T10:19:41.581Z,23.55
2023-05-08T10:23:07.312Z,23.70
2023-05-08T10:28:31.071Z,23.17
2023-05-08T10:31:07.423Z,22.58
2023-05-08T10:33:42.665Z,22.06
2023-05-08T10:36:16.788Z,21.48
2023-05-08T10:38:51.340Z,21.08
2023-05-08T10:41:24.528Z,21.21
2023-05-08T10:44:03.180Z,21.66
2023-05-08T10:46:41.176Z,21.44
2023-05-08T10:49:20.324Z,21.09
2023-05-08T10:52:01.465Z,20.34
2023-05-08T10:54:38.189Z,20.91
2023-05-08T10:57:13.072Z,21.30
2023-05-08T10:59:48.820Z,21.47
2023-05-08T11:02:30.035Z,22.24
2023-05-08T11:05:18.127Z,22.27
2023-05-08T11:07:59.199Z,22.71
2023-05-08T11:10:35.740Z,22.53
2023-05-08T11:13:10.184Z,22.25
2023-05-08T11:15:45.785Z,22.42
2023-05-08T11:18:19.662Z,22.69
2023-05-08T11:21:00.137Z,22.18
2023-05-08T11:23:35.238Z,21.72
2023-05-08T11:26:10.370Z,21.80
2023-05-08T11:28:48.437Z,21.43
2023-05-08T11:31:22.982Z,21.00
2023-05-08T11:33:56.172Z,21.10
2023-05-08T11:36:29.550Z,21.28
2023-05-08T11:39:11.814Z,21.46
2023-05-08T11:41:44.858Z,21.55
2023-05-08T11:44:24.276Z,21.90
2023-05-08T11:46:59.080Z,21.83
2023-05-08T11:49:32.342Z,21.75
2023-05-08T11:52:06.979Z,21.49
2023-05-08T11:54:40.243Z,21.49
2023-05-08T11:57:14.777Z,20.91
2023-05-08T11:59:52.281Z,20.42
2023-05-08T12:05:28.922Z,20.82
2023-05-08T12:08:07.045Z,20.53
2023-05-08T12:10:52.587Z,20.43
2023-05-08T12:13:29.803Z,20.34
2023-05-08T12:16:04.407Z,20.15
2023-05-08T12:18:39.241Z,19.89
2023-05-08T12:21:13.352Z,20.45
2023-05-08T12:23:46.920Z,20.44
2023-05-08T12:26:20.883Z,20.78
2023-05-08T12:28:59.440Z,21.02
2023-05-08T12:31:36.282Z,21.08
2023-05-08T12:34:10.156Z,21.06
2023-05-08T12:36:45.501Z,21.46
2023-05-08T12:39:19.992Z,21.64
2023-05-08T12:41:54.315Z,21.89
2023-05-08T12:44:28.453Z,22.02
2023-05-08T12:47:06.633Z,22.28
2023-05-08T12:49:41.583Z,22.13
2023-05-08T12:52:18.189Z,21.97
2023-05-08T12:54:51.938Z,22.04
2023-05-08T12:57:25.627Z,21.82
2023-05-08T13:00:05.435Z,21.87
2023-05-08T13:02:47.419Z,21.84
2023-05-08T13:05:13.836Z,21.80
2023-05-08T13:07:47.314Z,22.01
2023-05-08T13:10:24.458Z,22.33
2023-05-08T13:12:56.480Z,22.34
2023-05-08T13:15:30.165Z,22.46
2023-05-08T13:18:03.756Z,22.71
2023-05-08T13:20:37.457Z,22.82
2023-05-08T13:23:12.791Z,22.98
2023-05-08T13:25:46.208Z,23.34
2023-05-08T13:28:20.011Z,23.33
2023-05-08T13:30:53.745Z,23.29
2023-05-08T13:33:32.791Z,23.36
2023-05-08T13:36:07.740Z,23.40
2023-05-08T13:38:41.822Z,23.28
2023-05-08T13:41:18.067Z,23.20
2023-05-08T13:43:51.948Z,23.18
2023-05-08T13:46:26.746Z,23.06
2023-05-08T13:49:00.557Z,22.95
2023-05-08T13:51:34.366Z,22.81
2023-05-08T13:54:08.131Z,22.83
2023-05-08T13:59:27.538Z,22.27
2023-05-08T14:02:02.886Z,22.11
2023-05-08T14:04:36.433Z,21.94
2023-05-08T14:07:09.761Z,21.45
2023-05-08T14:09:43.354Z,21.07
2023-05-08T14:19:04.098Z,21.10
2023-05-08T14:21:43.937Z,21.59
2023-05-08T14:24:19.398Z,21.66
2023-05-08T14:26:52.792Z,21.08
2023-05-08T14:29:27.174Z,21.08
2023-05-08T14:32:00.500Z,21.17
2023-05-08T14:34:33.637Z,21.23
2023-05-08T14:37:06.663Z,21.43
2023-05-08T14:39:42.128Z,21.34
2023-05-08T14:42:22.860Z,21.51
2023-05-08T14:44:53.891Z,21.93
2023-05-08T14:47:27.395Z,22.04
2023-05-08T14:50:16.296Z,22.34
2023-05-08T14:52:55.215Z,22.29
2023-05-08T14:55:29.048Z,22.34
2023-05-08T14:58:02.286Z,22.64
2023-05-08T15:00:35.553Z,22.75
2023-05-08T15:03:08.965Z,22.82
2023-05-08T15:09:36.825Z,23.51
2023-05-08T15:12:10.997Z,23.83
2023-05-08T15:14:44.027Z,23.91
2023-05-08T15:17:17.048Z,23.89
2023-05-08T15:19:50.306Z,23.88
2023-05-08T15:22:26.406Z,23.95
2023-05-08T15:25:00.899Z,24.09
2023-05-08T15:27:34.825Z,24.13
2023-05-08T15:30:10.366Z,23.85
2023-05-08T15:32:46.321Z,23.34
2023-05-08T15:35:19.831Z,23.05
2023-05-08T15:37:52.835Z,22.83
2023-05-08T15:40:25.936Z,23.18
2023-05-08T15:42:59.754Z,23.44
2023-05-08T15:45:35.789Z,23.63
2023-05-08T15:48:10.466Z,23.89
2023-05-08T15:50:46.343Z,24.04
2023-05-08T15:53:19.249Z,24.17
2023-05-08T15:55:52.246Z,24.69
2023-05-08T15:58:25.723Z,24.99
2023-05-08T16:00:58.773Z,24.93
2023-05-08T16:03:31.774Z,25.17
2023-05-08T16:06:08.440Z,25.13
2023-05-08T16:08:41.481Z,25.31
2023-05-08T16:11:14.573Z,25.12
2023-05-08T16:13:47.844Z,24.87
2023-05-08T16:16:21.082Z,24.50
2023-05-08T16:18:54.078Z,24.74
2023-05-08T16:21:27.330Z,24.66
2023-05-08T16:24:00.616Z,25.25
2023-05-08T16:26:33.941Z,25.30
2023-05-08T16:29:07.068Z,25.54
2023-05-08T16:31:40.165Z,25.48
2023-05-08T16:34:13.382Z,25.62
2023-05-08T16:36:49.286Z,26.26
2023-05-08T16:39:22.939Z,26.25
2023-05-08T16:41:56.306Z,26.25
2023-05-08T16:44:29.689Z,26.11
2023-05-08T16:47:03.416Z,26.09
2023-05-08T16:49:48.391Z,26.44
2023-05-08T16:52:21.939Z,26.71
2023-05-08T16:54:55.426Z,26.91
2023-05-08T16:57:30.947Z,26.72
2023-05-08T17:00:08.024Z,26.64
2023-05-08T17:02:47.300Z,26.67
2023-05-08T17:05:24.229Z,26.71
2023-05-08T17:07:57.488Z,26.93
2023-05-08T17:10:32.720Z,27.01
2023-05-08T17:13:07.703Z,27.05
2023-05-08T17:15:41.223Z,27.24
2023-05-08T17:18:15.582Z,27.47
2023-05-08T17:20:51.829Z,27.60
2023-05-08T17:23:28.172Z,27.90
2023-05-08T17:26:02.480Z,28.15
2023-05-08T17:28:38.569Z,28.20
2023-05-08T17:31:13.261Z,28.15
2023-05-08T17:33:48.163Z,28.14
2023-05-08T17:39:13.954Z,28.03
2023-05-08T17:41:48.666Z,28.29
2023-05-08T17:44:22.579Z,28.40
2023-05-08T17:46:55.748Z,28.50
2023-05-08T17:49:30.132Z,28.58
2023-05-08T17:52:06.254Z,28.67
2023-05-08T17:54:45.175Z,28.65
2023-05-08T17:57:20.779Z,28.55
2023-05-08T17:59:58.793Z,28.50
2023-05-08T18:02:35.652Z,28.41
2023-05-08T18:05:14.163Z,28.36
2023-05-08T18:07:49.257Z,28.42
2023-05-08T18:10:25.008Z,28.47
2023-05-08T18:12:58.837Z,28.53
2023-05-08T18:15:32.337Z,28.56
2023-05-08T18:18:06.698Z,28.65
2023-05-08T18:20:41.477Z,28.68
2023-05-08T18:23:15.630Z,28.71
2023-05-08T18:25:51.357Z,28.70
2023-05-08T18:28:28.526Z,28.75
2023-05-08T18:31:03.116Z,28.75
2023-05-08T18:33:38.585Z,28.75
2023-05-08T18:42:26.049Z,28.96
2023-05-08T18:45:00.415Z,28.86
2023-05-08T18:47:37.435Z,28.97
2023-05-08T19:06:27.689Z,29.22
2023-05-08T19:24:18.159Z,29.40
2023-05-08T19:26:54.585Z,29.81
2023-05-08T19:29:34.161Z,30.03
2023-05-08T19:32:11.015Z,30.13
2023-05-08T19:34:47.306Z,30.26
2023-05-08T19:37:20.898Z,30.38
2023-05-08T19:39:54.916Z,29.04
2023-05-08T19:42:28.282Z,30.10
2023-05-08T19:45:01.566Z,30.33
2023-05-08T19:47:35.167Z,30.51
2023-05-08T19:50:14.593Z,30.65
2023-05-08T19:52:48.859Z,30.90
2023-05-08T19:55:22.102Z,31.09
2023-05-08T19:57:55.117Z,31.20
2023-05-08T20:00:28.785Z,31.25
2023-05-08T20:05:43.524Z,30.97
2023-05-08T20:08:17.565Z,31.45
2023-05-08T20:10:53.778Z,31.59
2023-05-08T20:13:29.627Z,31.62
2023-05-08T20:16:03.435Z,31.57
2023-05-08T20:18:37.603Z,31.60
2023-05-08T20:21:10.903Z,31.70
2023-05-08T20:23:44.102Z,31.82
2023-05-08T20:26:20.053Z,31.94
2023-05-08T20:28:53.431Z,31.96
2023-05-08T20:31:27.937Z,32.04
2023-05-08T20:34:01.520Z,32.10
2023-05-08T20:36:38.431Z,32.10
2023-05-08T20:39:09.582Z,32.05
2023-05-08T20:41:42.703Z,32.05
2023-05-08T20:44:18.188Z,32.02
2023-05-08T20:46:53.921Z,32.02
2023-05-08T20:49:27.085Z,32.03
2023-05-08T20:52:00.504Z,32.00
2023-05-08T20:54:37.291Z,31.97
2023-05-08T20:57:14.475Z,31.99
2023-05-08T20:59:47.900Z,31.88
2023-05-08T21:02:21.105Z,31.97
2023-05-08T21:04:54.332Z,32.06
2023-05-08T21:07:27.805Z,32.14
2023-05-08T21:10:00.948Z,32.21
2023-05-08T21:12:34.708Z,32.34
2023-05-08T21:15:10.384Z,32.46
2023-05-08T21:20:35.575Z,32.65
2023-05-08T21:23:08.687Z,32.70
2023-05-08T21:25:41.694Z,32.80
2023-05-08T21:28:15.178Z,32.82
2023-05-08T21:30:48.716Z,32.71
2023-05-08T21:33:21.957Z,32.72
2023-05-08T21:36:13.576Z,32.94
2023-05-08T21:38:46.905Z,32.97
2023-05-08T21:41:20.074Z,32.87
2023-05-08T21:43:53.354Z,32.82
2023-05-08T21:46:26.802Z,32.85
2023-05-08T21:49:03.203Z,32.84
2023-05-08T21:51:36.357Z,32.77
2023-05-08T21:54:10.266Z,32.79
2023-05-08T21:56:43.321Z,32.81
2023-05-08T21:59:16.307Z,32.88
2023-05-08T22:01:49.542Z,32.96
2023-05-08T22:04:28.065Z,33.01
2023-05-08T22:07:04.220Z,33.04
2023-05-08T22:09:37.352Z,33.02
2023-05-08T22:12:11.219Z,33.06
2023-05-08T22:14:44.461Z,33.09
2023-05-08T22:17:17.606Z,33.10
2023-05-08T22:19:50.803Z,33.11
2023-05-08T22:22:23.815Z,33.08
2023-05-08T22:24:57.620Z,33.00
2023-05-08T22:27:30.701Z,32.94
2023-05-08T22:30:03.829Z,32.93
2023-05-08T22:32:37.387Z,32.92
2023-05-08T22:35:11.654Z,32.90
2023-05-08T22:37:46.756Z,32.85
2023-05-08T22:40:21.846Z,32.92
2023-05-08T22:42:58.427Z,32.97
2023-05-08T22:45:31.820Z,33.02
2023-05-08T22:48:06.671Z,33.09
2023-05-08T22:50:39.956Z,33.18
2023-05-08T22:53:13.390Z,33.31
2023-05-08T22:55:46.725Z,33.42
2023-05-08T22:58:20.103Z,33.44
2023-05-08T23:00:53.360Z,33.50
2023-05-08T23:03:28.422Z,33.43
2023-05-08T23:06:01.870Z,33.51
2023-05-08T23:08:35.165Z,33.61
2023-05-08T23:11:08.520Z,33.76
2023-05-08T23:13:41.950Z,33.87
2023-05-08T23:16:15.275Z,33.96
2023-05-08T23:18:48.652Z,34.02
2023-05-08T23:21:21.936Z,34.02
2023-05-08T23:23:55.393Z,34.05
2023-05-08T23:26:29.026Z,34.01
2023-05-08T23:29:02.405Z,33.97
2023-05-08T23:31:35.828Z,33.96
2023-05-08T23:34:12.759Z,34.04
2023-05-08T23:36:46.371Z,34.00
2023-05-08T23:39:19.712Z,34.24
2023-05-08T23:41:53.232Z,34.35
2023-05-08T23:44:29.871Z,34.46
2023-05-08T23:47:03.174Z,34.51
2023-05-08T23:49:37.723Z,34.64
2023-05-08T23:52:10.926Z,34.74
2023-05-08T23:54:44.382Z,34.84
2023-05-08T23:57:17.623Z,34.86
2023-05-08T23:59:50.724Z,34.95
